Olive Hill, Kentucky
Current Conditions -  °F | °C
As of 3:10 AM on Tuesday 21 Oct 2014 (Local Time) from KSYM Reporting Station
Overcast Overcast  
Wind Chill: 52°   Ceiling: 6000
Heat Index: 52°   Visibility: 10mi
Dew Point: 50°   Wind: 9mph
Humidity: 94%   Direction: 230°SW
Pressure: 29.95"   Gusts: NA
Location:  38.3°N, 83.17°W
Report Text: KSYM 210710Z AUTO 23008KT 10SM OVC060 11/10 A2995 RMK AO2
Loading
Personal Weather Stations






























Interactive Weather Map
Tropical Storm Tracking
New forecast layout! Learn more

10-Day Weather Forecast

Advertisements
Track Severe Weather on mobile